METAR Data
IDs: Format: Raw Decoded Include TAF

Data at: 1911 UTC 22 May 2019

Region: TOP
KATL 221852Z 19008KT 160V220 10SM FEW070 32/16 A3012 RMK AO2 SLP186 T03220156

KBOS 221854Z 11015KT 10SM FEW055 SCT160 BKN250 16/06 A3019 RMK AO2 SLP222 T01610056

KBWI 221854Z 00000KT 10SM SCT160 BKN250 21/04 A3026 RMK AO2 SLP245 T02110039

KCLE 221851Z 17006KT 10SM -RA FEW022 FEW040 BKN100 22/16 A3005 RMK AO2 RAB29 SLP175 P0001 T02220156

KCLT 221852Z 05008KT 7SM OVC025 25/18 A3023 RMK AO2 SLP227 T02500178

KCVG 221852Z 31009KT 10SM FEW041 BKN055 OVC200 26/19 A3002 RMK AO2 SLP158 T02610189

KDCA 221852Z 19008KT 10SM FEW140 OVC250 22/07 A3027 RMK AO2 SLP251 T02170067

KDEN 221853Z 04010KT 10SM BKN041 08/00 A2981 RMK AO2 SLP085 T00780000

KDFW 221853Z 17022G31KT 10SM SCT045 BKN050 31/21 A2974 RMK AO2 PK WND 19033/1807 SLP063 T03110211

KDTW 221853Z 17011KT 10SM SCT035 OVC050 17/10 A3003 RMK AO2 RAE06 SLP170 P0001 T01670100

KEWR 221851Z 00000KT 10SM FEW085 BKN250 23/M01 A3021 RMK AO2 SLP229 T02331006

KFLL 221853Z 07014G18KT 10SM SCT035 29/21 A3005 RMK AO2 SLP177 T02940211

KIAD 221852Z 16006KT 10SM FEW100 BKN230 21/07 A3026 RMK AO2 SLP246 T02110072

KIAH 221853Z 16017G26KT 10SM SCT035 32/24 A2985 RMK AO2 PK WND 14026/1838 SLP107 T03170239

KJFK 221851Z 02007G17KT 10SM BKN240 23/02 A3022 RMK AO2 SLP233 T02280017

KLAS 221856Z 09015KT 10SM -RA FEW065 SCT085 BKN150 BKN200 14/07 A2963 RMK AO2 PK WND 07031/1827 RAB35 SLP024 P0004 T01390067 $

KLAX 221853Z 27017KT 10SM SCT010 SCT050 18/08 A2972 RMK AO2 SLP063 T01830083

KLGA 221851Z 36008KT 310V030 10SM FEW095 BKN250 23/00 A3021 RMK AO2 SLP229 T02280000 $

KMCO 221853Z 06011KT 10SM FEW050 32/17 A3008 RMK AO2 SLP184 T03220167

KMDW 221853Z 20016G26KT 10SM FEW200 BKN250 27/13 A2985 RMK AO2 PK WND 18026/1853 SLPNO T02670133

KMEM 221854Z 19013G20KT 10SM SCT035 BKN050 BKN065 30/23 A2996 RMK AO2 SLP140 T03000233 $

KMIA 221853Z 09012KT 10SM SCT043 31/19 A3005 RMK AO2 SLP177 T03110189

KMSP 221853Z 19018G31KT 10SM FEW040 BKN060 BKN250 17/07 A2956 RMK AO2 PK WND 18033/1821 SLP012 T01670072

KORD 221851Z 19013G24KT 150V220 10SM SCT250 26/13 A2984 RMK AO2 PK WND 19026/1824 SLP103 T02560133

KPDX 221853Z 00000KT 10SM BKN025 BKN180 17/11 A3000 RMK AO2 SLP159 T01670106

KPHL 221854Z 21008KT 10SM SCT220 BKN280 23/02 A3024 RMK AO2 SLP238 T02280017

KPHX 221851Z 22009G16KT 10SM BKN060 BKN080 BKN250 23/04 A2969 RMK AO2 SLP040 T02280039

KPIT 221851Z 15006KT 10SM FEW070 BKN130 OVC250 24/12 A3011 RMK AO2 SLP202 T02440122

KSAN 221851Z 28011G20KT 10SM SCT027 BKN034 BKN050 17/09 A2981 RMK AO2 SLP096 T01720089

KSEA 221853Z VRB04KT 10SM SCT028 BKN110 18/11 A2999 RMK AO2 SLP162 T01830106

KSFO 221856Z 26011KT 10SM FEW030 FEW200 18/09 A2984 RMK AO2 SLP105 T01830094

KSLC 221901Z 01006KT 10SM SCT024TCU BKN034 BKN050 BKN200 12/05 A2970 RMK AO2 TCU W AND NW AND DSNT SW SH DSNT E-SE T01170050 VISNO NW RNWY

KSTL 221851Z 17008G20KT 10SM SCT250 28/15 A2986 RMK AO2 SLP104 T02830150

KTPA 221853Z 25004KT 10SM SCT060 31/21 A3005 RMK AO2 SLP176 T03110206 $